createdAt,value
2023-04-18T00:01:03.703Z,9.04
2023-04-18T00:03:30.644Z,8.96
2023-04-18T00:06:00.171Z,9.00
2023-04-18T00:08:27.354Z,9.02
2023-04-18T00:10:54.212Z,9.10
2023-04-18T00:13:21.119Z,9.18
2023-04-18T00:15:47.867Z,9.09
2023-04-18T00:18:17.317Z,9.03
2023-04-18T00:20:46.422Z,8.95
2023-04-18T00:23:14.114Z,9.13
2023-04-18T00:25:41.475Z,9.04
2023-04-18T00:28:08.251Z,8.97
2023-04-18T00:30:34.957Z,8.93
2023-04-18T00:33:01.712Z,8.96
2023-04-18T00:35:28.339Z,9.15
2023-04-18T00:37:54.852Z,8.95
2023-04-18T00:40:21.504Z,9.13
2023-04-18T00:42:48.098Z,8.95
2023-04-18T00:45:15.123Z,8.94
2023-04-18T00:47:41.708Z,9.07
2023-04-18T00:50:09.930Z,8.99
2023-04-18T00:52:37.044Z,9.15
2023-04-18T00:55:07.368Z,9.01
2023-04-18T00:57:35.113Z,9.23
2023-04-18T01:00:06.862Z,9.24
2023-04-18T01:02:34.021Z,9.19
2023-04-18T01:05:00.796Z,9.16
2023-04-18T01:07:27.544Z,9.11
2023-04-18T01:09:54.245Z,9.19
2023-04-18T01:12:21.068Z,9.25
2023-04-18T01:14:50.555Z,9.17
2023-04-18T01:17:17.565Z,9.21
2023-04-18T01:19:44.490Z,9.36
2023-04-18T01:22:14.633Z,9.33
2023-04-18T01:24:42.428Z,9.36
2023-04-18T01:27:12.420Z,9.52
2023-04-18T01:29:39.929Z,9.26
2023-04-18T01:32:06.985Z,9.48
2023-04-18T01:34:33.634Z,9.60
2023-04-18T01:37:00.246Z,9.39
2023-04-18T01:39:27.016Z,9.62
2023-04-18T01:41:53.642Z,9.26
2023-04-18T01:44:20.374Z,9.63
2023-04-18T01:46:47.015Z,9.38
2023-04-18T01:49:13.983Z,9.57
2023-04-18T01:51:42.076Z,9.50
2023-04-18T01:54:08.744Z,9.62
2023-04-18T01:56:35.415Z,9.66
2023-04-18T01:59:02.024Z,9.72
2023-04-18T02:01:28.596Z,9.66
2023-04-18T02:03:55.495Z,9.83
2023-04-18T02:06:22.407Z,9.58
2023-04-18T02:08:49.206Z,9.70
2023-04-18T02:11:15.777Z,9.90
2023-04-18T02:13:42.420Z,9.78
2023-04-18T02:16:13.126Z,9.74
2023-04-18T02:18:40.157Z,9.73
2023-04-18T02:21:07.179Z,9.70
2023-04-18T02:23:33.870Z,9.78
2023-04-18T02:26:00.475Z,9.81
2023-04-18T02:28:27.069Z,9.75
2023-04-18T02:30:53.752Z,9.58
2023-04-18T02:33:20.570Z,9.82
2023-04-18T02:35:47.327Z,9.83
2023-04-18T02:38:13.821Z,9.87
2023-04-18T02:40:40.444Z,9.85
2023-04-18T02:43:07.186Z,9.77
2023-04-18T02:45:33.875Z,9.89
2023-04-18T02:48:01.514Z,9.73
2023-04-18T02:50:29.165Z,9.72
2023-04-18T02:52:55.924Z,9.81
2023-04-18T02:55:22.877Z,9.91
2023-04-18T02:57:49.503Z,9.76
2023-04-18T03:00:16.198Z,9.68
2023-04-18T03:02:43.070Z,9.72
2023-04-18T03:05:09.881Z,9.86
2023-04-18T03:07:36.538Z,9.74
2023-04-18T03:10:03.574Z,9.77
2023-04-18T03:12:30.713Z,9.83
2023-04-18T03:14:57.786Z,9.49
2023-04-18T03:17:24.644Z,9.60
2023-04-18T03:19:51.290Z,9.42
2023-04-18T03:22:18.116Z,9.64
2023-04-18T03:24:44.885Z,9.57
2023-04-18T03:27:13.069Z,9.49
2023-04-18T03:29:39.664Z,9.52
2023-04-18T03:32:06.473Z,9.55
2023-04-18T03:34:33.163Z,9.29
2023-04-18T03:36:59.723Z,9.29
2023-04-18T03:39:26.310Z,9.46
2023-04-18T03:41:53.160Z,9.33
2023-04-18T03:44:19.849Z,9.28
2023-04-18T03:46:46.685Z,9.40
2023-04-18T03:49:13.470Z,9.35
2023-04-18T03:51:47.943Z,9.21
2023-04-18T03:54:15.945Z,9.17
2023-04-18T03:56:42.924Z,9.43
2023-04-18T03:59:10.482Z,9.17
2023-04-18T04:01:37.583Z,9.17
2023-04-18T04:04:05.962Z,9.45
2023-04-18T04:06:32.792Z,9.27
2023-04-18T04:08:59.408Z,9.44
2023-04-18T04:11:26.149Z,9.18
2023-04-18T04:13:53.255Z,9.24
2023-04-18T04:16:19.873Z,9.33
2023-04-18T04:18:46.465Z,9.35
2023-04-18T04:21:12.967Z,9.15
2023-04-18T04:23:42.084Z,9.20
2023-04-18T04:26:09.290Z,9.46
2023-04-18T04:28:36.922Z,9.36
2023-04-18T04:31:08.124Z,9.35
2023-04-18T04:33:37.452Z,9.30
2023-04-18T04:36:07.807Z,9.37
2023-04-18T04:38:38.335Z,9.23
2023-04-18T04:41:09.617Z,9.20
2023-04-18T04:43:37.066Z,9.45
2023-04-18T04:46:04.621Z,9.48
2023-04-18T04:48:31.277Z,9.42
2023-04-18T04:50:59.789Z,9.58
2023-04-18T04:53:28.542Z,9.59
2023-04-18T04:55:55.200Z,9.55
2023-04-18T04:58:21.825Z,9.58
2023-04-18T05:00:48.366Z,9.60
2023-04-18T05:03:15.317Z,9.30
2023-04-18T05:05:42.231Z,9.42
2023-04-18T05:08:08.867Z,9.35
2023-04-18T05:10:37.312Z,9.38
2023-04-18T05:13:06.918Z,9.53
2023-04-18T05:15:34.913Z,9.45
2023-04-18T05:18:01.570Z,9.17
2023-04-18T05:20:28.317Z,9.38
2023-04-18T05:22:57.209Z,9.23
2023-04-18T05:25:23.980Z,9.06
2023-04-18T05:27:51.059Z,9.32
2023-04-18T05:30:17.766Z,9.15
2023-04-18T05:32:44.691Z,9.10
2023-04-18T05:35:14.404Z,8.77
2023-04-18T05:37:41.374Z,8.95
2023-04-18T05:40:09.527Z,9.09
2023-04-18T05:42:36.328Z,8.97
2023-04-18T05:45:03.171Z,8.93
2023-04-18T05:47:30.523Z,9.06
2023-04-18T05:49:57.591Z,9.02
2023-04-18T05:52:28.511Z,9.18
2023-04-18T05:54:55.201Z,9.01
2023-04-18T05:57:38.344Z,9.04
2023-04-18T06:00:11.557Z,9.03
2023-04-18T06:02:44.392Z,8.83
2023-04-18T06:05:15.160Z,8.65
2023-04-18T06:07:44.975Z,8.91
2023-04-18T06:10:14.796Z,9.07
2023-04-18T06:12:43.999Z,8.98
2023-04-18T06:15:23.367Z,8.84
2023-04-18T06:18:08.242Z,8.64
2023-04-18T06:20:53.133Z,8.94
2023-04-18T06:23:31.503Z,9.14
2023-04-18T06:25:58.950Z,8.74
2023-04-18T06:28:36.127Z,8.83
2023-04-18T06:31:14.041Z,9.31
2023-04-18T06:34:00.578Z,9.06
2023-04-18T06:37:33.087Z,9.36
2023-04-18T06:40:03.289Z,8.90
2023-04-18T06:43:38.619Z,9.29
2023-04-18T06:47:20.935Z,8.87
2023-04-18T06:49:30.921Z,9.00
2023-04-18T06:55:02.101Z,9.48
2023-04-18T06:57:34.711Z,9.44
2023-04-18T07:00:01.632Z,9.35
2023-04-18T07:02:31.182Z,9.50
2023-04-18T07:05:02.384Z,9.45
2023-04-18T07:13:43.368Z,9.50
2023-04-18T07:16:30.428Z,9.63
2023-04-18T07:19:05.525Z,9.62
2023-04-18T07:21:45.203Z,9.76
2023-04-18T07:24:15.460Z,9.51
2023-04-18T07:26:47.152Z,9.89
2023-04-18T07:29:16.336Z,9.70
2023-04-18T07:31:45.303Z,9.66
2023-04-18T07:34:16.782Z,10.05
2023-04-18T07:37:41.459Z,9.95
2023-04-18T07:40:21.405Z,10.41
2023-04-18T07:45:32.014Z,11.03
2023-04-18T07:48:29.258Z,10.80
2023-04-18T07:50:58.808Z,11.16
2023-04-18T07:53:25.648Z,11.18
2023-04-18T07:56:03.606Z,11.08
2023-04-18T07:58:49.409Z,11.12
2023-04-18T08:01:29.252Z,11.83
2023-04-18T08:04:42.343Z,11.83
2023-04-18T08:07:13.430Z,11.84
2023-04-18T08:09:59.197Z,11.68
2023-04-18T08:12:47.903Z,12.26
2023-04-18T08:15:16.592Z,11.91
2023-04-18T08:17:54.041Z,12.31
2023-04-18T08:20:30.985Z,12.28
2023-04-18T08:23:06.945Z,12.74
2023-04-18T08:26:07.632Z,12.71
2023-04-18T08:28:57.810Z,12.93
2023-04-18T08:31:24.671Z,12.89
2023-04-18T08:34:25.301Z,12.76
2023-04-18T08:37:12.754Z,12.92
2023-04-18T08:40:12.752Z,13.20
2023-04-18T08:43:21.907Z,13.08
2023-04-18T08:45:51.332Z,13.21
2023-04-18T08:48:28.728Z,13.77
2023-04-18T08:50:59.251Z,13.41
2023-04-18T08:53:40.375Z,13.62
2023-04-18T08:56:11.734Z,13.70
2023-04-18T08:58:40.761Z,14.25
2023-04-18T09:01:08.912Z,14.06
2023-04-18T09:03:37.703Z,14.32
2023-04-18T09:06:35.767Z,14.55
2023-04-18T09:09:16.045Z,14.31
2023-04-18T09:11:44.148Z,14.84
2023-04-18T09:15:00.822Z,14.83
2023-04-18T09:17:50.161Z,14.98
2023-04-18T09:20:57.100Z,15.44
2023-04-18T09:23:50.505Z,15.63
2023-04-18T09:27:00.158Z,15.60
2023-04-18T09:29:57.931Z,16.12
2023-04-18T09:32:32.505Z,16.04
2023-04-18T09:35:04.026Z,16.22
2023-04-18T09:38:39.755Z,16.07
2023-04-18T09:40:25.479Z,16.06
2023-04-18T09:43:18.029Z,16.19
2023-04-18T09:45:51.604Z,16.14
2023-04-18T09:48:18.600Z,16.50
2023-04-18T09:50:53.584Z,16.49
2023-04-18T09:53:54.884Z,16.94
2023-04-18T09:56:37.477Z,16.10
2023-04-18T09:59:50.941Z,16.36
2023-04-18T10:02:37.143Z,15.41
2023-04-18T10:05:26.227Z,15.25
2023-04-18T10:08:01.798Z,14.77
2023-04-18T10:10:28.865Z,14.87
2023-04-18T10:13:08.491Z,14.49
2023-04-18T10:15:35.254Z,14.70
2023-04-18T10:18:06.176Z,14.53
2023-04-18T10:20:44.795Z,14.61
2023-04-18T10:23:49.172Z,14.38
2023-04-18T10:26:16.135Z,14.34
2023-04-18T10:29:06.032Z,14.38
2023-04-18T10:31:59.966Z,14.17
2023-04-18T10:34:40.245Z,14.26
2023-04-18T10:37:29.670Z,13.73
2023-04-18T10:40:33.391Z,13.56
2023-04-18T10:43:25.801Z,13.57
2023-04-18T10:46:32.792Z,13.86
2023-04-18T10:49:52.935Z,13.13
2023-04-18T10:52:24.067Z,13.22
2023-04-18T10:55:14.150Z,12.90
2023-04-18T10:57:51.948Z,13.17
2023-04-18T11:00:39.359Z,13.44
2023-04-18T11:03:12.494Z,13.03
2023-04-18T11:05:45.759Z,12.86
2023-04-18T11:08:31.757Z,12.89
2023-04-18T11:11:13.758Z,13.32
2023-04-18T11:14:00.303Z,13.46
2023-04-18T11:19:49.983Z,13.18
2023-04-18T11:22:29.715Z,13.53
2023-04-18T11:25:09.718Z,13.11
2023-04-18T11:27:50.708Z,13.20
2023-04-18T11:30:59.026Z,13.11
2023-04-18T11:33:28.468Z,13.28
2023-04-18T11:36:01.832Z,13.32
2023-04-18T11:38:33.579Z,13.29
2023-04-18T11:41:06.381Z,12.97
2023-04-18T11:43:33.713Z,12.69
2023-04-18T11:46:00.660Z,13.09
2023-04-18T11:49:00.702Z,13.08
2023-04-18T11:51:39.804Z,12.81
2023-04-18T11:54:08.740Z,12.97
2023-04-18T11:56:48.798Z,12.88
2023-04-18T11:59:22.468Z,12.88
2023-04-18T12:02:15.377Z,13.23
2023-04-18T12:05:11.228Z,13.28
2023-04-18T12:08:00.484Z,12.72
2023-04-18T12:10:32.486Z,12.79
2023-04-18T12:13:17.350Z,12.42
2023-04-18T12:16:21.237Z,13.07
2023-04-18T12:19:13.205Z,12.80
2023-04-18T12:22:02.143Z,12.51
2023-04-18T12:25:08.112Z,12.72
2023-04-18T12:28:07.699Z,12.42
2023-04-18T12:34:06.962Z,12.39
2023-04-18T12:36:39.111Z,12.25
2023-04-18T12:39:06.211Z,12.41
2023-04-18T12:41:32.942Z,12.65
2023-04-18T12:44:02.270Z,12.46
2023-04-18T12:48:17.017Z,12.49
2023-04-18T12:49:39.606Z,12.27
2023-04-18T12:52:23.865Z,12.34
2023-04-18T12:55:46.832Z,11.91
2023-04-18T12:58:18.749Z,12.29
2023-04-18T13:00:48.244Z,12.09
2023-04-18T13:03:17.324Z,11.76
2023-04-18T13:05:51.432Z,12.47
2023-04-18T13:08:18.312Z,12.14
2023-04-18T13:10:50.486Z,12.28
2023-04-18T13:13:19.499Z,12.31
2023-04-18T13:15:49.285Z,12.34
2023-04-18T13:18:30.424Z,12.37
2023-04-18T13:20:57.151Z,12.02
2023-04-18T13:26:20.793Z,11.78
2023-04-18T13:28:51.432Z,11.74
2023-04-18T13:31:20.299Z,12.13
2023-04-18T13:33:47.363Z,12.04
2023-04-18T13:36:16.237Z,11.87
2023-04-18T13:39:01.344Z,11.83
2023-04-18T13:41:36.294Z,12.09
2023-04-18T13:44:08.599Z,11.74
2023-04-18T13:46:35.857Z,11.84
2023-04-18T13:49:04.796Z,11.83
2023-04-18T13:51:31.725Z,11.51
2023-04-18T13:55:42.648Z,11.92
2023-04-18T13:57:11.876Z,11.79
2023-04-18T14:02:35.827Z,11.57
2023-04-18T14:05:06.334Z,11.51
2023-04-18T14:07:40.193Z,11.83
2023-04-18T14:11:33.075Z,11.63
2023-04-18T14:14:18.129Z,11.79
2023-04-18T14:20:12.893Z,11.92
2023-04-18T14:22:53.015Z,11.73
2023-04-18T14:25:28.137Z,11.63
2023-04-18T14:28:12.679Z,11.56
2023-04-18T14:35:39.238Z,11.90
2023-04-18T14:38:32.181Z,12.00
2023-04-18T14:41:23.438Z,11.45
2023-04-18T14:45:08.161Z,11.37
2023-04-18T14:49:01.524Z,11.67
2023-04-18T14:55:31.419Z,11.25
2023-04-18T14:58:44.275Z,11.55
2023-04-18T15:01:17.246Z,11.54
2023-04-18T15:03:51.812Z,11.43
2023-04-18T15:06:56.307Z,11.18
2023-04-18T15:09:33.473Z,11.27
2023-04-18T15:12:02.742Z,11.64
2023-04-18T15:18:01.188Z,11.79
2023-04-18T15:20:40.787Z,11.64
2023-04-18T15:23:19.187Z,11.91
2023-04-18T15:25:56.875Z,11.81
2023-04-18T15:29:07.075Z,11.73
2023-04-18T15:34:49.297Z,11.89
2023-04-18T15:37:38.678Z,11.78
2023-04-18T15:40:09.754Z,11.81
2023-04-18T15:43:11.985Z,11.85
2023-04-18T15:45:57.034Z,11.44
2023-04-18T15:48:38.892Z,11.66
2023-04-18T15:51:30.503Z,11.65
2023-04-18T15:54:19.411Z,11.63
2023-04-18T15:56:57.559Z,11.82
2023-04-18T16:02:21.832Z,11.80
2023-04-18T16:05:21.842Z,11.32
2023-04-18T16:08:12.498Z,11.38
2023-04-18T16:13:28.632Z,11.66
2023-04-18T16:16:07.227Z,11.39
2023-04-18T16:18:34.122Z,11.46
2023-04-18T16:22:17.928Z,11.81
2023-04-18T16:28:24.716Z,11.43
2023-04-18T16:31:10.195Z,11.33
2023-04-18T16:33:40.140Z,11.31
2023-04-18T16:36:13.837Z,11.55
2023-04-18T16:38:40.635Z,11.56
2023-04-18T16:41:16.101Z,11.43
2023-04-18T16:43:56.641Z,11.17
2023-04-18T16:46:48.398Z,11.37
2023-04-18T16:49:51.946Z,11.73
2023-04-18T16:52:21.463Z,11.18
2023-04-18T16:54:50.626Z,11.49
2023-04-18T16:57:19.017Z,11.52
2023-04-18T16:59:48.196Z,11.42
2023-04-18T17:02:16.424Z,11.24
2023-04-18T17:04:50.315Z,10.95
2023-04-18T17:07:51.853Z,10.99
2023-04-18T17:10:19.278Z,11.06
2023-04-18T17:12:49.178Z,11.27
2023-04-18T17:15:39.772Z,11.03
2023-04-18T17:18:17.676Z,10.93
2023-04-18T17:20:52.008Z,11.32
2023-04-18T17:23:23.016Z,11.25
2023-04-18T17:25:52.305Z,11.37
2023-04-18T17:28:36.956Z,11.21
2023-04-18T17:31:43.840Z,11.00
2023-04-18T17:34:30.737Z,11.25
2023-04-18T17:37:15.803Z,10.94
2023-04-18T17:39:47.119Z,11.03
2023-04-18T17:42:20.873Z,11.26
2023-04-18T17:45:19.476Z,11.16
2023-04-18T17:48:18.521Z,11.11
2023-04-18T17:50:48.434Z,10.78
2023-04-18T17:56:09.056Z,11.00
2023-04-18T17:58:39.688Z,11.12
2023-04-18T18:01:17.161Z,11.23
2023-04-18T18:04:27.027Z,11.28
2023-04-18T18:10:21.446Z,11.34
2023-04-18T18:12:51.287Z,10.84
2023-04-18T18:16:16.809Z,11.09
2023-04-18T18:18:44.375Z,10.78
2023-04-18T18:21:31.324Z,10.99
2023-04-18T18:24:39.699Z,10.85
2023-04-18T18:31:29.926Z,10.83
2023-04-18T18:33:15.422Z,10.81
2023-04-18T18:39:27.106Z,10.95
2023-04-18T18:43:43.650Z,11.33
2023-04-18T18:49:03.278Z,10.78
2023-04-18T18:51:32.136Z,10.77
2023-04-18T18:54:17.417Z,10.71
2023-04-18T18:56:59.461Z,10.67
2023-04-18T18:59:31.946Z,10.70
2023-04-18T19:02:04.417Z,11.06
2023-04-18T19:04:31.413Z,11.01
2023-04-18T19:07:07.998Z,10.93
2023-04-18T19:15:11.644Z,10.99
2023-04-18T19:17:42.515Z,10.45
2023-04-18T19:23:42.914Z,10.50
2023-04-18T19:26:18.908Z,10.69
2023-04-18T19:28:50.571Z,10.14
2023-04-18T19:31:21.368Z,10.28
2023-04-18T19:33:53.064Z,10.24
2023-04-18T19:36:32.907Z,10.09
2023-04-18T19:39:10.949Z,10.34
2023-04-18T19:41:56.636Z,10.29
2023-04-18T19:48:33.100Z,10.35
2023-04-18T19:52:09.825Z,9.93
2023-04-18T19:54:53.408Z,9.84
2023-04-18T19:57:49.910Z,9.77
2023-04-18T20:00:18.673Z,9.56
2023-04-18T20:02:55.723Z,9.41
2023-04-18T20:05:30.440Z,9.45
2023-04-18T20:11:31.055Z,9.90
2023-04-18T20:14:11.446Z,9.67
2023-04-18T20:24:20.331Z,9.71
2023-04-18T20:27:18.877Z,9.52
2023-04-18T20:30:01.623Z,9.62
2023-04-18T20:36:16.624Z,9.83
2023-04-18T20:38:53.085Z,9.63
2023-04-18T20:41:24.202Z,9.71
2023-04-18T20:43:54.902Z,9.51
2023-04-18T20:46:30.495Z,9.70
2023-04-18T20:49:25.215Z,9.60
2023-04-18T20:52:45.446Z,9.76
2023-04-18T20:55:16.871Z,9.74
2023-04-18T20:58:02.672Z,9.72
2023-04-18T21:00:47.888Z,10.05
2023-04-18T21:03:34.595Z,10.05
2023-04-18T21:06:13.556Z,10.09
2023-04-18T21:08:41.154Z,9.76
2023-04-18T21:11:23.872Z,10.13
2023-04-18T21:14:27.365Z,9.86
2023-04-18T21:17:30.181Z,10.04
2023-04-18T21:20:00.718Z,10.12
2023-04-18T21:22:31.822Z,10.12
2023-04-18T21:25:09.668Z,10.16
2023-04-18T21:28:04.308Z,10.00
2023-04-18T21:30:37.494Z,10.39
2023-04-18T21:33:04.642Z,10.30
2023-04-18T21:35:37.746Z,10.41
2023-04-18T21:38:04.651Z,10.52
2023-04-18T21:40:46.689Z,10.51
2023-04-18T21:43:46.099Z,10.13
2023-04-18T21:46:16.105Z,10.54
2023-04-18T21:49:10.406Z,10.17
2023-04-18T21:51:37.160Z,10.32
2023-04-18T21:54:08.498Z,10.48
2023-04-18T21:56:38.491Z,10.61
2023-04-18T21:59:16.721Z,10.22
2023-04-18T22:01:48.747Z,10.22
2023-04-18T22:04:22.224Z,10.50
2023-04-18T22:06:58.060Z,10.41
2023-04-18T22:09:25.079Z,10.84
2023-04-18T22:11:51.870Z,10.73
2023-04-18T22:14:20.001Z,10.73
2023-04-18T22:16:46.719Z,10.63
2023-04-18T22:19:14.123Z,10.93
2023-04-18T22:21:40.735Z,10.66
2023-04-18T22:24:11.198Z,10.70
2023-04-18T22:26:37.823Z,10.88
2023-04-18T22:29:11.970Z,10.67
2023-04-18T22:31:38.767Z,10.54
2023-04-18T22:34:05.766Z,10.72
2023-04-18T22:36:32.449Z,10.85
2023-04-18T22:39:01.761Z,10.57
2023-04-18T22:41:28.727Z,10.49
2023-04-18T22:43:58.043Z,10.74
2023-04-18T22:46:28.241Z,10.37
2023-04-18T22:48:55.866Z,10.64
2023-04-18T22:51:24.879Z,10.62
2023-04-18T22:53:54.219Z,10.62
2023-04-18T22:56:21.332Z,10.37
2023-04-18T22:58:48.078Z,10.51
2023-04-18T23:01:14.623Z,10.56
2023-04-18T23:03:43.966Z,10.49
2023-04-18T23:06:11.110Z,10.56
2023-04-18T23:08:45.192Z,10.49
2023-04-18T23:11:11.841Z,10.38
2023-04-18T23:13:42.680Z,10.39
2023-04-18T23:16:09.464Z,10.26
2023-04-18T23:18:36.175Z,10.39
2023-04-18T23:21:04.864Z,10.13
2023-04-18T23:23:35.080Z,10.11
2023-04-18T23:26:02.033Z,9.85
2023-04-18T23:28:28.689Z,9.94
2023-04-18T23:30:55.361Z,10.13
2023-04-18T23:33:22.514Z,10.07
2023-04-18T23:35:49.271Z,9.89
2023-04-18T23:38:15.873Z,9.93
2023-04-18T23:40:42.573Z,10.08
2023-04-18T23:43:09.129Z,10.10
2023-04-18T23:45:36.630Z,9.98
2023-04-18T23:48:03.420Z,9.82
2023-04-18T23:50:29.998Z,9.83
2023-04-18T23:52:56.625Z,9.94
2023-04-18T23:55:23.446Z,9.65
2023-04-18T23:57:50.101Z,9.75
